sensor_id;sensor_type;location;lat;lon;timestamp;P1;durP1;ratioP1;P2;durP2;ratioP2
11228;SDS011;5671;47.936;8.716;2023-06-10T00:01:49;3.00;;;2.70;;
11228;SDS011;5671;47.936;8.716;2023-06-10T00:04:18;3.50;;;3.20;;
11228;SDS011;5671;47.936;8.716;2023-06-10T00:06:44;3.63;;;3.33;;
11228;SDS011;5671;47.936;8.716;2023-06-10T00:09:13;3.80;;;3.00;;
11228;SDS011;5671;47.936;8.716;2023-06-10T00:11:40;5.10;;;3.47;;
11228;SDS011;5671;47.936;8.716;2023-06-10T00:14:07;4.23;;;2.90;;
11228;SDS011;5671;47.936;8.716;2023-06-10T00:16:35;3.20;;;2.90;;
11228;SDS011;5671;47.936;8.716;2023-06-10T00:19:03;4.73;;;3.30;;
11228;SDS011;5671;47.936;8.716;2023-06-10T00:21:33;4.00;;;2.90;;
11228;SDS011;5671;47.936;8.716;2023-06-10T00:24:02;3.30;;;3.00;;
11228;SDS011;5671;47.936;8.716;2023-06-10T00:26:30;4.13;;;2.90;;
11228;SDS011;5671;47.936;8.716;2023-06-10T00:28:57;3.20;;;2.90;;
11228;SDS011;5671;47.936;8.716;2023-06-10T00:31:24;3.47;;;3.07;;
11228;SDS011;5671;47.936;8.716;2023-06-10T00:33:51;3.47;;;3.17;;
11228;SDS011;5671;47.936;8.716;2023-06-10T00:36:18;2.90;;;2.70;;
11228;SDS011;5671;47.936;8.716;2023-06-10T00:38:47;3.60;;;3.20;;
11228;SDS011;5671;47.936;8.716;2023-06-10T00:41:13;4.37;;;3.57;;
11228;SDS011;5671;47.936;8.716;2023-06-10T00:43:40;4.53;;;3.57;;
11228;SDS011;5671;47.936;8.716;2023-06-10T00:46:07;3.40;;;3.10;;
11228;SDS011;5671;47.936;8.716;2023-06-10T00:48:34;4.37;;;3.40;;
11228;SDS011;5671;47.936;8.716;2023-06-10T00:51:01;5.73;;;3.90;;
11228;SDS011;5671;47.936;8.716;2023-06-10T00:53:28;3.83;;;3.53;;
11228;SDS011;5671;47.936;8.716;2023-06-10T00:56:01;5.57;;;3.27;;
11228;SDS011;5671;47.936;8.716;2023-06-10T00:58:27;6.93;;;3.50;;
11228;SDS011;5671;47.936;8.716;2023-06-10T01:00:54;4.30;;;3.47;;
11228;SDS011;5671;47.936;8.716;2023-06-10T01:03:22;3.97;;;3.57;;
11228;SDS011;5671;47.936;8.716;2023-06-10T01:05:50;3.90;;;3.50;;
11228;SDS011;5671;47.936;8.716;2023-06-10T01:08:24;3.77;;;3.00;;
11228;SDS011;5671;47.936;8.716;2023-06-10T01:11:01;4.10;;;3.33;;
11228;SDS011;5671;47.936;8.716;2023-06-10T01:13:32;3.50;;;3.20;;
11228;SDS011;5671;47.936;8.716;2023-06-10T01:16:01;4.43;;;3.87;;
11228;SDS011;5671;47.936;8.716;2023-06-10T01:18:29;5.60;;;3.53;;
11228;SDS011;5671;47.936;8.716;2023-06-10T01:20:57;7.57;;;3.87;;
11228;SDS011;5671;47.936;8.716;2023-06-10T01:23:25;3.90;;;3.20;;
11228;SDS011;5671;47.936;8.716;2023-06-10T01:25:53;3.63;;;3.33;;
11228;SDS011;5671;47.936;8.716;2023-06-10T01:28:25;3.60;;;3.30;;
11228;SDS011;5671;47.936;8.716;2023-06-10T01:30:59;4.10;;;3.70;;
11228;SDS011;5671;47.936;8.716;2023-06-10T01:33:33;3.33;;;3.03;;
11228;SDS011;5671;47.936;8.716;2023-06-10T01:36:03;4.30;;;3.47;;
11228;SDS011;5671;47.936;8.716;2023-06-10T01:38:32;3.53;;;3.23;;
11228;SDS011;5671;47.936;8.716;2023-06-10T01:41:03;4.13;;;3.47;;
11228;SDS011;5671;47.936;8.716;2023-06-10T01:43:32;4.13;;;3.33;;
11228;SDS011;5671;47.936;8.716;2023-06-10T01:45:59;6.57;;;3.50;;
11228;SDS011;5671;47.936;8.716;2023-06-10T01:48:26;3.80;;;3.10;;
11228;SDS011;5671;47.936;8.716;2023-06-10T01:50:53;6.70;;;3.70;;
11228;SDS011;5671;47.936;8.716;2023-06-10T01:53:21;3.53;;;3.23;;
11228;SDS011;5671;47.936;8.716;2023-06-10T01:55:49;4.70;;;3.90;;
11228;SDS011;5671;47.936;8.716;2023-06-10T01:58:16;4.53;;;3.50;;
11228;SDS011;5671;47.936;8.716;2023-06-10T02:00:42;4.30;;;3.90;;
11228;SDS011;5671;47.936;8.716;2023-06-10T02:03:09;3.77;;;3.43;;
11228;SDS011;5671;47.936;8.716;2023-06-10T02:05:37;4.30;;;3.50;;
11228;SDS011;5671;47.936;8.716;2023-06-10T02:08:04;4.07;;;3.73;;
11228;SDS011;5671;47.936;8.716;2023-06-10T02:10:31;4.60;;;4.20;;
11228;SDS011;5671;47.936;8.716;2023-06-10T02:12:59;4.90;;;3.70;;
11228;SDS011;5671;47.936;8.716;2023-06-10T02:15:26;4.20;;;3.80;;
11228;SDS011;5671;47.936;8.716;2023-06-10T02:17:53;3.90;;;3.50;;
11228;SDS011;5671;47.936;8.716;2023-06-10T02:20:21;3.80;;;3.50;;
11228;SDS011;5671;47.936;8.716;2023-06-10T02:22:47;4.23;;;3.83;;
11228;SDS011;5671;47.936;8.716;2023-06-10T02:25:14;4.40;;;3.50;;
11228;SDS011;5671;47.936;8.716;2023-06-10T02:27:41;3.20;;;2.90;;
11228;SDS011;5671;47.936;8.716;2023-06-10T02:30:10;4.13;;;3.73;;
11228;SDS011;5671;47.936;8.716;2023-06-10T02:32:38;3.93;;;3.53;;
11228;SDS011;5671;47.936;8.716;2023-06-10T02:35:06;6.47;;;3.70;;
11228;SDS011;5671;47.936;8.716;2023-06-10T02:37:33;4.27;;;3.87;;
11228;SDS011;5671;47.936;8.716;2023-06-10T02:40:00;4.00;;;3.60;;
11228;SDS011;5671;47.936;8.716;2023-06-10T02:42:26;5.70;;;4.13;;
11228;SDS011;5671;47.936;8.716;2023-06-10T02:44:53;7.20;;;3.43;;
11228;SDS011;5671;47.936;8.716;2023-06-10T02:47:21;7.13;;;3.73;;
11228;SDS011;5671;47.936;8.716;2023-06-10T02:49:48;4.37;;;3.97;;
11228;SDS011;5671;47.936;8.716;2023-06-10T02:52:15;8.00;;;3.87;;
11228;SDS011;5671;47.936;8.716;2023-06-10T02:54:42;4.80;;;4.30;;
11228;SDS011;5671;47.936;8.716;2023-06-10T02:57:10;4.03;;;3.73;;
11228;SDS011;5671;47.936;8.716;2023-06-10T02:59:36;5.27;;;3.80;;
11228;SDS011;5671;47.936;8.716;2023-06-10T03:02:03;4.23;;;3.83;;
11228;SDS011;5671;47.936;8.716;2023-06-10T03:04:32;4.43;;;3.70;;
11228;SDS011;5671;47.936;8.716;2023-06-10T03:06:59;4.73;;;3.60;;
11228;SDS011;5671;47.936;8.716;2023-06-10T03:09:28;4.17;;;3.77;;
11228;SDS011;5671;47.936;8.716;2023-06-10T03:11:55;5.77;;;3.90;;
11228;SDS011;5671;47.936;8.716;2023-06-10T03:14:22;7.93;;;4.00;;
11228;SDS011;5671;47.936;8.716;2023-06-10T03:16:49;6.73;;;4.03;;
11228;SDS011;5671;47.936;8.716;2023-06-10T03:19:16;4.10;;;3.80;;
11228;SDS011;5671;47.936;8.716;2023-06-10T03:21:44;4.73;;;3.93;;
11228;SDS011;5671;47.936;8.716;2023-06-10T03:24:11;3.80;;;3.50;;
11228;SDS011;5671;47.936;8.716;2023-06-10T03:26:38;4.00;;;3.60;;
11228;SDS011;5671;47.936;8.716;2023-06-10T03:29:05;5.27;;;4.03;;
11228;SDS011;5671;47.936;8.716;2023-06-10T03:31:32;6.07;;;3.87;;
11228;SDS011;5671;47.936;8.716;2023-06-10T03:34:00;4.67;;;4.27;;
11228;SDS011;5671;47.936;8.716;2023-06-10T03:36:27;4.53;;;4.03;;
11228;SDS011;5671;47.936;8.716;2023-06-10T03:38:56;8.13;;;3.70;;
11228;SDS011;5671;47.936;8.716;2023-06-10T03:41:23;6.20;;;4.30;;
11228;SDS011;5671;47.936;8.716;2023-06-10T03:43:50;7.53;;;4.27;;
11228;SDS011;5671;47.936;8.716;2023-06-10T03:46:17;4.73;;;4.20;;
11228;SDS011;5671;47.936;8.716;2023-06-10T03:48:44;4.50;;;3.67;;
11228;SDS011;5671;47.936;8.716;2023-06-10T03:51:11;4.77;;;4.37;;
11228;SDS011;5671;47.936;8.716;2023-06-10T03:53:37;5.17;;;4.00;;
11228;SDS011;5671;47.936;8.716;2023-06-10T03:56:06;4.60;;;4.07;;
11228;SDS011;5671;47.936;8.716;2023-06-10T03:58:32;6.13;;;4.40;;
11228;SDS011;5671;47.936;8.716;2023-06-10T04:00:59;6.27;;;4.20;;
11228;SDS011;5671;47.936;8.716;2023-06-10T04:03:26;6.67;;;3.90;;
11228;SDS011;5671;47.936;8.716;2023-06-10T04:05:53;4.77;;;4.37;;
11228;SDS011;5671;47.936;8.716;2023-06-10T04:08:20;4.53;;;4.13;;
11228;SDS011;5671;47.936;8.716;2023-06-10T04:10:47;5.20;;;4.13;;
11228;SDS011;5671;47.936;8.716;2023-06-10T04:13:15;5.00;;;4.50;;
11228;SDS011;5671;47.936;8.716;2023-06-10T04:15:42;4.57;;;4.10;;
11228;SDS011;5671;47.936;8.716;2023-06-10T04:18:09;4.60;;;4.20;;
11228;SDS011;5671;47.936;8.716;2023-06-10T04:20:36;5.33;;;4.83;;
11228;SDS011;5671;47.936;8.716;2023-06-10T04:23:02;4.10;;;3.80;;
11228;SDS011;5671;47.936;8.716;2023-06-10T04:25:29;4.27;;;3.90;;
11228;SDS011;5671;47.936;8.716;2023-06-10T04:27:56;5.13;;;4.33;;
11228;SDS011;5671;47.936;8.716;2023-06-10T04:30:24;5.13;;;4.73;;
11228;SDS011;5671;47.936;8.716;2023-06-10T04:32:51;5.13;;;4.67;;
11228;SDS011;5671;47.936;8.716;2023-06-10T04:35:19;4.23;;;3.93;;
11228;SDS011;5671;47.936;8.716;2023-06-10T04:37:46;4.93;;;4.47;;
11228;SDS011;5671;47.936;8.716;2023-06-10T04:40:13;4.17;;;3.87;;
11228;SDS011;5671;47.936;8.716;2023-06-10T04:42:42;7.10;;;4.63;;
11228;SDS011;5671;47.936;8.716;2023-06-10T04:45:09;5.70;;;4.30;;
11228;SDS011;5671;47.936;8.716;2023-06-10T04:47:37;5.20;;;4.57;;
11228;SDS011;5671;47.936;8.716;2023-06-10T04:50:05;5.73;;;4.00;;
11228;SDS011;5671;47.936;8.716;2023-06-10T04:52:32;5.70;;;4.73;;
11228;SDS011;5671;47.936;8.716;2023-06-10T04:54:59;6.13;;;4.57;;
11228;SDS011;5671;47.936;8.716;2023-06-10T04:57:26;4.60;;;4.20;;
11228;SDS011;5671;47.936;8.716;2023-06-10T04:59:53;5.00;;;4.50;;
11228;SDS011;5671;47.936;8.716;2023-06-10T05:02:19;5.33;;;4.80;;
11228;SDS011;5671;47.936;8.716;2023-06-10T05:04:48;6.13;;;4.53;;
11228;SDS011;5671;47.936;8.716;2023-06-10T05:07:15;5.10;;;4.57;;
11228;SDS011;5671;47.936;8.716;2023-06-10T05:09:42;4.97;;;4.47;;
11228;SDS011;5671;47.936;8.716;2023-06-10T05:12:09;6.37;;;4.37;;
11228;SDS011;5671;47.936;8.716;2023-06-10T05:14:36;4.50;;;4.10;;
11228;SDS011;5671;47.936;8.716;2023-06-10T05:17:02;5.17;;;4.67;;
11228;SDS011;5671;47.936;8.716;2023-06-10T05:19:31;4.80;;;4.40;;
11228;SDS011;5671;47.936;8.716;2023-06-10T05:21:59;4.80;;;4.40;;
11228;SDS011;5671;47.936;8.716;2023-06-10T05:24:26;7.00;;;4.57;;
11228;SDS011;5671;47.936;8.716;2023-06-10T05:26:53;5.33;;;4.83;;
11228;SDS011;5671;47.936;8.716;2023-06-10T05:29:19;5.07;;;4.60;;
11228;SDS011;5671;47.936;8.716;2023-06-10T05:31:46;6.13;;;4.60;;
11228;SDS011;5671;47.936;8.716;2023-06-10T05:34:14;5.20;;;4.70;;
11228;SDS011;5671;47.936;8.716;2023-06-10T05:36:41;5.30;;;4.80;;
11228;SDS011;5671;47.936;8.716;2023-06-10T05:39:10;6.07;;;5.57;;
11228;SDS011;5671;47.936;8.716;2023-06-10T05:41:37;5.83;;;5.00;;
11228;SDS011;5671;47.936;8.716;2023-06-10T05:44:03;6.13;;;5.53;;
11228;SDS011;5671;47.936;8.716;2023-06-10T05:46:30;6.47;;;5.00;;
11228;SDS011;5671;47.936;8.716;2023-06-10T05:48:57;5.57;;;5.00;;
11228;SDS011;5671;47.936;8.716;2023-06-10T05:51:24;5.77;;;4.90;;
11228;SDS011;5671;47.936;8.716;2023-06-10T05:53:52;7.57;;;5.37;;
11228;SDS011;5671;47.936;8.716;2023-06-10T05:56:20;5.67;;;5.17;;
11228;SDS011;5671;47.936;8.716;2023-06-10T05:58:47;6.43;;;5.83;;
11228;SDS011;5671;47.936;8.716;2023-06-10T06:01:16;5.93;;;5.43;;
11228;SDS011;5671;47.936;8.716;2023-06-10T06:03:43;5.80;;;5.20;;
11228;SDS011;5671;47.936;8.716;2023-06-10T06:06:10;6.17;;;5.27;;
11228;SDS011;5671;47.936;8.716;2023-06-10T06:08:40;8.20;;;6.00;;
11228;SDS011;5671;47.936;8.716;2023-06-10T06:11:07;5.80;;;5.30;;
11228;SDS011;5671;47.936;8.716;2023-06-10T06:13:35;7.80;;;6.17;;
11228;SDS011;5671;47.936;8.716;2023-06-10T06:16:03;5.53;;;4.97;;
11228;SDS011;5671;47.936;8.716;2023-06-10T06:18:30;6.33;;;5.23;;
11228;SDS011;5671;47.936;8.716;2023-06-10T06:20:56;7.73;;;5.40;;
11228;SDS011;5671;47.936;8.716;2023-06-10T06:23:23;5.47;;;4.97;;
11228;SDS011;5671;47.936;8.716;2023-06-10T06:25:50;6.57;;;5.87;;
11228;SDS011;5671;47.936;8.716;2023-06-10T06:28:17;5.67;;;5.17;;
11228;SDS011;5671;47.936;8.716;2023-06-10T06:30:47;5.97;;;5.20;;
11228;SDS011;5671;47.936;8.716;2023-06-10T06:33:14;6.63;;;6.03;;
11228;SDS011;5671;47.936;8.716;2023-06-10T06:35:41;6.27;;;5.67;;
11228;SDS011;5671;47.936;8.716;2023-06-10T06:38:07;6.10;;;5.23;;
11228;SDS011;5671;47.936;8.716;2023-06-10T06:40:34;6.00;;;5.50;;
11228;SDS011;5671;47.936;8.716;2023-06-10T06:43:01;6.00;;;4.93;;
11228;SDS011;5671;47.936;8.716;2023-06-10T06:45:28;6.60;;;6.00;;
11228;SDS011;5671;47.936;8.716;2023-06-10T06:47:56;6.20;;;5.70;;
11228;SDS011;5671;47.936;8.716;2023-06-10T06:50:22;6.17;;;4.77;;
11228;SDS011;5671;47.936;8.716;2023-06-10T06:52:49;6.30;;;5.57;;
11228;SDS011;5671;47.936;8.716;2023-06-10T06:55:17;5.60;;;5.10;;
11228;SDS011;5671;47.936;8.716;2023-06-10T06:57:46;6.13;;;5.50;;
11228;SDS011;5671;47.936;8.716;2023-06-10T07:00:22;8.03;;;5.80;;
11228;SDS011;5671;47.936;8.716;2023-06-10T07:02:49;5.90;;;5.33;;
11228;SDS011;5671;47.936;8.716;2023-06-10T07:05:17;6.00;;;5.40;;
11228;SDS011;5671;47.936;8.716;2023-06-10T07:07:43;6.53;;;6.03;;
11228;SDS011;5671;47.936;8.716;2023-06-10T07:10:10;5.97;;;5.47;;
11228;SDS011;5671;47.936;8.716;2023-06-10T07:12:37;5.90;;;5.27;;
11228;SDS011;5671;47.936;8.716;2023-06-10T07:15:04;5.97;;;5.47;;
11228;SDS011;5671;47.936;8.716;2023-06-10T07:17:32;5.77;;;5.17;;
11228;SDS011;5671;47.936;8.716;2023-06-10T07:19:59;5.17;;;4.77;;
11228;SDS011;5671;47.936;8.716;2023-06-10T07:22:27;5.60;;;5.00;;
11228;SDS011;5671;47.936;8.716;2023-06-10T07:24:54;5.90;;;4.77;;
11228;SDS011;5671;47.936;8.716;2023-06-10T07:27:21;5.00;;;4.60;;
11228;SDS011;5671;47.936;8.716;2023-06-10T07:29:48;7.40;;;5.50;;
11228;SDS011;5671;47.936;8.716;2023-06-10T07:32:15;5.33;;;4.83;;
11228;SDS011;5671;47.936;8.716;2023-06-10T07:34:41;6.50;;;5.07;;
11228;SDS011;5671;47.936;8.716;2023-06-10T07:37:08;5.93;;;5.33;;
11228;SDS011;5671;47.936;8.716;2023-06-10T07:39:37;5.40;;;4.90;;
11228;SDS011;5671;47.936;8.716;2023-06-10T07:42:04;6.47;;;5.47;;
11228;SDS011;5671;47.936;8.716;2023-06-10T07:44:31;5.77;;;5.17;;
11228;SDS011;5671;47.936;8.716;2023-06-10T07:46:58;6.00;;;5.00;;
11228;SDS011;5671;47.936;8.716;2023-06-10T07:49:25;6.50;;;4.93;;
11228;SDS011;5671;47.936;8.716;2023-06-10T07:51:53;6.23;;;4.40;;
11228;SDS011;5671;47.936;8.716;2023-06-10T07:54:20;5.87;;;5.20;;
11228;SDS011;5671;47.936;8.716;2023-06-10T07:56:48;5.70;;;5.17;;
11228;SDS011;5671;47.936;8.716;2023-06-10T07:59:17;5.63;;;5.10;;
11228;SDS011;5671;47.936;8.716;2023-06-10T08:01:44;5.20;;;4.70;;
11228;SDS011;5671;47.936;8.716;2023-06-10T08:04:11;6.47;;;4.27;;
11228;SDS011;5671;47.936;8.716;2023-06-10T08:06:41;5.10;;;4.70;;
11228;SDS011;5671;47.936;8.716;2023-06-10T08:09:07;5.30;;;4.50;;
11228;SDS011;5671;47.936;8.716;2023-06-10T08:11:34;6.80;;;4.73;;
11228;SDS011;5671;47.936;8.716;2023-06-10T08:14:02;5.07;;;4.67;;
11228;SDS011;5671;47.936;8.716;2023-06-10T08:16:29;5.00;;;4.37;;
11228;SDS011;5671;47.936;8.716;2023-06-10T08:18:56;4.43;;;4.00;;
11228;SDS011;5671;47.936;8.716;2023-06-10T08:21:23;4.60;;;4.20;;
11228;SDS011;5671;47.936;8.716;2023-06-10T08:23:52;5.00;;;4.50;;
11228;SDS011;5671;47.936;8.716;2023-06-10T08:26:19;5.83;;;4.07;;
11228;SDS011;5671;47.936;8.716;2023-06-10T08:28:46;5.53;;;4.90;;
11228;SDS011;5671;47.936;8.716;2023-06-10T08:31:14;4.67;;;4.20;;
11228;SDS011;5671;47.936;8.716;2023-06-10T08:33:41;5.67;;;4.13;;
11228;SDS011;5671;47.936;8.716;2023-06-10T08:36:08;4.30;;;3.90;;
11228;SDS011;5671;47.936;8.716;2023-06-10T08:38:35;4.70;;;4.30;;
11228;SDS011;5671;47.936;8.716;2023-06-10T08:41:02;5.20;;;4.10;;
11228;SDS011;5671;47.936;8.716;2023-06-10T08:43:32;9.10;;;4.67;;
11228;SDS011;5671;47.936;8.716;2023-06-10T08:46:03;5.57;;;4.60;;
11228;SDS011;5671;47.936;8.716;2023-06-10T08:48:31;4.57;;;4.17;;
11228;SDS011;5671;47.936;8.716;2023-06-10T08:51:01;4.57;;;4.17;;
11228;SDS011;5671;47.936;8.716;2023-06-10T08:53:30;4.77;;;4.33;;
11228;SDS011;5671;47.936;8.716;2023-06-10T08:56:03;4.97;;;4.57;;
11228;SDS011;5671;47.936;8.716;2023-06-10T08:58:32;4.67;;;3.97;;
11228;SDS011;5671;47.936;8.716;2023-06-10T09:01:05;4.57;;;4.23;;
11228;SDS011;5671;47.936;8.716;2023-06-10T09:03:33;5.23;;;4.00;;
11228;SDS011;5671;47.936;8.716;2023-06-10T09:06:02;5.10;;;4.60;;
11228;SDS011;5671;47.936;8.716;2023-06-10T09:08:31;5.00;;;4.47;;
11228;SDS011;5671;47.936;8.716;2023-06-10T09:10:59;5.23;;;4.63;;
11228;SDS011;5671;47.936;8.716;2023-06-10T09:13:26;6.63;;;4.53;;
11228;SDS011;5671;47.936;8.716;2023-06-10T09:15:53;6.63;;;4.37;;
11228;SDS011;5671;47.936;8.716;2023-06-10T09:18:21;4.70;;;4.00;;
11228;SDS011;5671;47.936;8.716;2023-06-10T09:20:49;5.20;;;4.33;;
11228;SDS011;5671;47.936;8.716;2023-06-10T09:23:16;4.90;;;4.40;;
11228;SDS011;5671;47.936;8.716;2023-06-10T09:25:43;5.07;;;4.10;;
11228;SDS011;5671;47.936;8.716;2023-06-10T09:28:13;6.10;;;3.83;;
11228;SDS011;5671;47.936;8.716;2023-06-10T09:30:41;4.47;;;4.07;;
11228;SDS011;5671;47.936;8.716;2023-06-10T09:33:11;5.10;;;4.60;;
11228;SDS011;5671;47.936;8.716;2023-06-10T09:35:44;4.70;;;3.90;;
11228;SDS011;5671;47.936;8.716;2023-06-10T09:38:14;6.93;;;4.40;;
11228;SDS011;5671;47.936;8.716;2023-06-10T09:40:48;4.47;;;4.03;;
11228;SDS011;5671;47.936;8.716;2023-06-10T09:43:17;8.67;;;4.53;;
11228;SDS011;5671;47.936;8.716;2023-06-10T09:45:58;8.83;;;4.80;;
11228;SDS011;5671;47.936;8.716;2023-06-10T09:48:25;4.90;;;4.50;;
11228;SDS011;5671;47.936;8.716;2023-06-10T09:50:52;7.17;;;4.30;;
11228;SDS011;5671;47.936;8.716;2023-06-10T09:53:20;6.67;;;4.00;;
11228;SDS011;5671;47.936;8.716;2023-06-10T09:55:48;4.33;;;3.93;;
11228;SDS011;5671;47.936;8.716;2023-06-10T09:58:15;7.00;;;4.23;;
11228;SDS011;5671;47.936;8.716;2023-06-10T10:00:41;4.40;;;4.00;;
11228;SDS011;5671;47.936;8.716;2023-06-10T10:03:08;5.10;;;4.60;;
11228;SDS011;5671;47.936;8.716;2023-06-10T10:05:35;5.27;;;4.40;;
11228;SDS011;5671;47.936;8.716;2023-06-10T10:08:02;5.70;;;4.23;;
11228;SDS011;5671;47.936;8.716;2023-06-10T10:10:30;4.93;;;4.20;;
11228;SDS011;5671;47.936;8.716;2023-06-10T10:12:57;4.37;;;4.07;;
11228;SDS011;5671;47.936;8.716;2023-06-10T10:15:28;4.57;;;4.23;;
11228;SDS011;5671;47.936;8.716;2023-06-10T10:17:58;6.07;;;4.23;;
11228;SDS011;5671;47.936;8.716;2023-06-10T10:20:33;4.90;;;4.10;;
11228;SDS011;5671;47.936;8.716;2023-06-10T10:23:02;4.37;;;3.97;;
11228;SDS011;5671;47.936;8.716;2023-06-10T10:25:34;6.00;;;4.27;;
11228;SDS011;5671;47.936;8.716;2023-06-10T10:28:04;4.30;;;3.90;;
11228;SDS011;5671;47.936;8.716;2023-06-10T10:30:37;4.03;;;3.57;;
11228;SDS011;5671;47.936;8.716;2023-06-10T10:33:08;5.13;;;3.47;;
11228;SDS011;5671;47.936;8.716;2023-06-10T10:35:38;4.80;;;3.97;;
11228;SDS011;5671;47.936;8.716;2023-06-10T10:38:06;6.17;;;4.00;;
11228;SDS011;5671;47.936;8.716;2023-06-10T10:40:36;4.30;;;3.90;;
11228;SDS011;5671;47.936;8.716;2023-06-10T10:43:04;3.93;;;3.63;;
11228;SDS011;5671;47.936;8.716;2023-06-10T10:45:33;5.07;;;4.03;;
11228;SDS011;5671;47.936;8.716;2023-06-10T10:48:05;4.20;;;3.80;;
11228;SDS011;5671;47.936;8.716;2023-06-10T10:50:36;4.70;;;3.47;;
11228;SDS011;5671;47.936;8.716;2023-06-10T10:53:04;4.17;;;3.87;;
11228;SDS011;5671;47.936;8.716;2023-06-10T10:55:34;6.10;;;3.63;;
11228;SDS011;5671;47.936;8.716;2023-06-10T10:58:03;4.30;;;3.90;;
11228;SDS011;5671;47.936;8.716;2023-06-10T11:00:32;4.47;;;3.90;;
11228;SDS011;5671;47.936;8.716;2023-06-10T11:03:00;4.83;;;3.53;;
11228;SDS011;5671;47.936;8.716;2023-06-10T11:05:35;4.33;;;3.60;;
11228;SDS011;5671;47.936;8.716;2023-06-10T11:08:04;4.17;;;3.77;;
11228;SDS011;5671;47.936;8.716;2023-06-10T11:10:33;4.87;;;3.67;;
11228;SDS011;5671;47.936;8.716;2023-06-10T11:13:02;4.03;;;3.63;;
11228;SDS011;5671;47.936;8.716;2023-06-10T11:15:33;4.03;;;3.73;;
11228;SDS011;5671;47.936;8.716;2023-06-10T11:18:11;3.67;;;3.37;;
11228;SDS011;5671;47.936;8.716;2023-06-10T11:20:43;3.90;;;3.47;;
11228;SDS011;5671;47.936;8.716;2023-06-10T11:23:24;4.10;;;3.40;;
11228;SDS011;5671;47.936;8.716;2023-06-10T11:26:20;3.90;;;3.60;;
11228;SDS011;5671;47.936;8.716;2023-06-10T11:29:11;4.20;;;3.80;;
11228;SDS011;5671;47.936;8.716;2023-06-10T11:31:52;6.17;;;3.37;;
11228;SDS011;5671;47.936;8.716;2023-06-10T11:35:43;3.80;;;3.50;;
11228;SDS011;5671;47.936;8.716;2023-06-10T11:37:42;4.30;;;3.70;;
11228;SDS011;5671;47.936;8.716;2023-06-10T11:40:10;3.97;;;3.53;;
11228;SDS011;5671;47.936;8.716;2023-06-10T11:42:38;3.70;;;3.40;;
11228;SDS011;5671;47.936;8.716;2023-06-10T11:45:14;4.73;;;3.10;;
11228;SDS011;5671;47.936;8.716;2023-06-10T11:47:54;4.73;;;4.03;;
11228;SDS011;5671;47.936;8.716;2023-06-10T11:50:29;4.37;;;3.97;;
11228;SDS011;5671;47.936;8.716;2023-06-10T11:52:59;4.00;;;3.60;;
11228;SDS011;5671;47.936;8.716;2023-06-10T11:55:39;11.23;;;4.17;;
11228;SDS011;5671;47.936;8.716;2023-06-10T11:58:11;4.10;;;3.37;;
11228;SDS011;5671;47.936;8.716;2023-06-10T12:00:46;3.10;;;2.80;;
11228;SDS011;5671;47.936;8.716;2023-06-10T12:03:16;2.97;;;2.77;;
11228;SDS011;5671;47.936;8.716;2023-06-10T12:05:54;3.83;;;3.40;;
11228;SDS011;5671;47.936;8.716;2023-06-10T12:08:22;7.53;;;3.60;;
11228;SDS011;5671;47.936;8.716;2023-06-10T12:10:49;3.30;;;3.00;;
11228;SDS011;5671;47.936;8.716;2023-06-10T12:13:17;3.73;;;3.43;;
11228;SDS011;5671;47.936;8.716;2023-06-10T12:15:47;3.50;;;3.20;;
11228;SDS011;5671;47.936;8.716;2023-06-10T12:18:17;3.50;;;3.20;;
11228;SDS011;5671;47.936;8.716;2023-06-10T12:20:45;6.57;;;3.00;;
11228;SDS011;5671;47.936;8.716;2023-06-10T12:23:13;3.13;;;2.83;;
11228;SDS011;5671;47.936;8.716;2023-06-10T12:25:48;2.97;;;2.67;;
11228;SDS011;5671;47.936;8.716;2023-06-10T12:28:17;2.80;;;2.60;;
11228;SDS011;5671;47.936;8.716;2023-06-10T12:30:48;2.83;;;2.60;;
11228;SDS011;5671;47.936;8.716;2023-06-10T12:33:19;3.87;;;3.20;;
11228;SDS011;5671;47.936;8.716;2023-06-10T12:35:47;3.17;;;2.80;;
11228;SDS011;5671;47.936;8.716;2023-06-10T12:38:18;3.40;;;3.10;;
11228;SDS011;5671;47.936;8.716;2023-06-10T12:40:49;2.50;;;2.30;;
11228;SDS011;5671;47.936;8.716;2023-06-10T12:43:19;2.90;;;2.70;;
11228;SDS011;5671;47.936;8.716;2023-06-10T12:45:46;5.40;;;2.70;;
11228;SDS011;5671;47.936;8.716;2023-06-10T12:48:18;7.17;;;2.60;;
11228;SDS011;5671;47.936;8.716;2023-06-10T12:50:51;2.90;;;2.70;;
11228;SDS011;5671;47.936;8.716;2023-06-10T12:53:18;4.37;;;3.00;;
11228;SDS011;5671;47.936;8.716;2023-06-10T12:55:46;2.63;;;2.43;;
11228;SDS011;5671;47.936;8.716;2023-06-10T12:58:20;3.20;;;2.60;;
11228;SDS011;5671;47.936;8.716;2023-06-10T13:00:48;2.67;;;2.47;;
11228;SDS011;5671;47.936;8.716;2023-06-10T13:03:42;4.83;;;2.80;;
11228;SDS011;5671;47.936;8.716;2023-06-10T13:06:08;3.07;;;2.33;;
11228;SDS011;5671;47.936;8.716;2023-06-10T13:08:35;2.77;;;2.57;;
11228;SDS011;5671;47.936;8.716;2023-06-10T13:11:02;2.43;;;2.23;;
11228;SDS011;5671;47.936;8.716;2023-06-10T13:13:31;2.70;;;2.50;;
11228;SDS011;5671;47.936;8.716;2023-06-10T13:15:58;2.80;;;2.53;;
11228;SDS011;5671;47.936;8.716;2023-06-10T13:18:26;2.93;;;2.50;;
11228;SDS011;5671;47.936;8.716;2023-06-10T13:20:54;2.27;;;2.17;;
11228;SDS011;5671;47.936;8.716;2023-06-10T13:23:21;2.50;;;2.30;;
11228;SDS011;5671;47.936;8.716;2023-06-10T13:25:48;2.60;;;2.40;;
11228;SDS011;5671;47.936;8.716;2023-06-10T13:28:15;2.30;;;2.10;;
11228;SDS011;5671;47.936;8.716;2023-06-10T13:30:42;2.20;;;2.03;;
11228;SDS011;5671;47.936;8.716;2023-06-10T13:33:09;2.33;;;2.17;;
11228;SDS011;5671;47.936;8.716;2023-06-10T13:35:36;1.90;;;1.80;;
11228;SDS011;5671;47.936;8.716;2023-06-10T13:38:06;2.37;;;2.17;;
11228;SDS011;5671;47.936;8.716;2023-06-10T13:40:33;3.10;;;2.00;;
11228;SDS011;5671;47.936;8.716;2023-06-10T13:43:00;2.33;;;2.20;;
11228;SDS011;5671;47.936;8.716;2023-06-10T13:45:27;4.30;;;2.03;;
11228;SDS011;5671;47.936;8.716;2023-06-10T13:47:57;2.13;;;2.00;;
11228;SDS011;5671;47.936;8.716;2023-06-10T13:50:29;1.93;;;1.83;;
11228;SDS011;5671;47.936;8.716;2023-06-10T13:52:56;2.17;;;2.07;;
11228;SDS011;5671;47.936;8.716;2023-06-10T13:55:24;2.73;;;1.90;;
11228;SDS011;5671;47.936;8.716;2023-06-10T13:57:51;2.53;;;2.33;;
11228;SDS011;5671;47.936;8.716;2023-06-10T14:00:18;2.20;;;2.10;;
11228;SDS011;5671;47.936;8.716;2023-06-10T14:02:45;2.40;;;2.20;;
11228;SDS011;5671;47.936;8.716;2023-06-10T14:05:12;1.97;;;1.83;;
11228;SDS011;5671;47.936;8.716;2023-06-10T14:07:39;3.10;;;2.13;;
11228;SDS011;5671;47.936;8.716;2023-06-10T14:10:07;2.80;;;1.97;;
11228;SDS011;5671;47.936;8.716;2023-06-10T14:15:38;3.90;;;2.33;;
11228;SDS011;5671;47.936;8.716;2023-06-10T14:18:12;2.83;;;2.53;;
11228;SDS011;5671;47.936;8.716;2023-06-10T14:20:42;2.20;;;2.10;;
11228;SDS011;5671;47.936;8.716;2023-06-10T14:23:09;2.00;;;1.90;;
11228;SDS011;5671;47.936;8.716;2023-06-10T14:25:36;2.73;;;1.80;;
11228;SDS011;5671;47.936;8.716;2023-06-10T14:28:04;2.23;;;1.93;;
11228;SDS011;5671;47.936;8.716;2023-06-10T14:30:31;2.10;;;1.90;;
11228;SDS011;5671;47.936;8.716;2023-06-10T14:33:03;2.20;;;2.03;;
11228;SDS011;5671;47.936;8.716;2023-06-10T14:35:32;3.73;;;2.13;;
11228;SDS011;5671;47.936;8.716;2023-06-10T14:38:02;2.07;;;1.97;;
11228;SDS011;5671;47.936;8.716;2023-06-10T14:40:29;2.10;;;2.00;;
11228;SDS011;5671;47.936;8.716;2023-06-10T14:42:57;3.10;;;2.07;;
11228;SDS011;5671;47.936;8.716;2023-06-10T14:45:30;2.20;;;2.07;;
11228;SDS011;5671;47.936;8.716;2023-06-10T14:47:57;2.27;;;2.07;;
11228;SDS011;5671;47.936;8.716;2023-06-10T14:50:24;1.93;;;1.83;;
11228;SDS011;5671;47.936;8.716;2023-06-10T14:52:51;2.27;;;2.00;;
11228;SDS011;5671;47.936;8.716;2023-06-10T14:55:17;2.10;;;1.90;;
11228;SDS011;5671;47.936;8.716;2023-06-10T14:57:45;2.13;;;1.90;;
11228;SDS011;5671;47.936;8.716;2023-06-10T15:00:12;2.67;;;2.30;;
11228;SDS011;5671;47.936;8.716;2023-06-10T15:02:48;1.90;;;1.80;;
11228;SDS011;5671;47.936;8.716;2023-06-10T15:05:16;1.97;;;1.87;;
11228;SDS011;5671;47.936;8.716;2023-06-10T15:07:44;2.40;;;2.20;;
11228;SDS011;5671;47.936;8.716;2023-06-10T15:10:11;1.87;;;1.70;;
11228;SDS011;5671;47.936;8.716;2023-06-10T15:12:38;2.77;;;1.80;;